sensor_id;sensor_type;location;lat;lon;timestamp;P1;durP1;ratioP1;P2;durP2;ratioP2
3547;SDS011;1788;49.400;11.092;2022-08-19T00:02:11;29.77;;;21.07;;
3547;SDS011;1788;49.400;11.092;2022-08-19T00:04:38;30.03;;;21.33;;
3547;SDS011;1788;49.400;11.092;2022-08-19T00:07:05;29.50;;;20.00;;
3547;SDS011;1788;49.400;11.092;2022-08-19T00:09:31;28.30;;;19.37;;
3547;SDS011;1788;49.400;11.092;2022-08-19T00:11:58;25.43;;;19.30;;
3547;SDS011;1788;49.400;11.092;2022-08-19T00:14:25;29.90;;;19.83;;
3547;SDS011;1788;49.400;11.092;2022-08-19T00:16:51;28.13;;;20.07;;
3547;SDS011;1788;49.400;11.092;2022-08-19T00:19:18;24.83;;;17.37;;
3547;SDS011;1788;49.400;11.092;2022-08-19T00:21:44;27.60;;;19.37;;
3547;SDS011;1788;49.400;11.092;2022-08-19T00:24:12;25.27;;;18.27;;
3547;SDS011;1788;49.400;11.092;2022-08-19T00:26:38;20.93;;;17.23;;
3547;SDS011;1788;49.400;11.092;2022-08-19T00:29:10;26.70;;;18.20;;
3547;SDS011;1788;49.400;11.092;2022-08-19T00:31:32;20.27;;;17.50;;
3547;SDS011;1788;49.400;11.092;2022-08-19T00:34:00;24.77;;;17.43;;
3547;SDS011;1788;49.400;11.092;2022-08-19T00:36:26;23.23;;;16.63;;
3547;SDS011;1788;49.400;11.092;2022-08-19T00:38:54;24.10;;;18.13;;
3547;SDS011;1788;49.400;11.092;2022-08-19T00:41:21;24.60;;;18.30;;
3547;SDS011;1788;49.400;11.092;2022-08-19T00:46:16;26.47;;;18.20;;
3547;SDS011;1788;49.400;11.092;2022-08-19T00:48:42;23.70;;;17.77;;
3547;SDS011;1788;49.400;11.092;2022-08-19T00:51:09;25.60;;;18.37;;
3547;SDS011;1788;49.400;11.092;2022-08-19T00:53:36;22.83;;;16.57;;
3547;SDS011;1788;49.400;11.092;2022-08-19T00:56:02;24.53;;;18.33;;
3547;SDS011;1788;49.400;11.092;2022-08-19T00:58:30;25.67;;;18.17;;
3547;SDS011;1788;49.400;11.092;2022-08-19T01:00:56;26.10;;;18.70;;
3547;SDS011;1788;49.400;11.092;2022-08-19T01:03:23;25.83;;;17.97;;
3547;SDS011;1788;49.400;11.092;2022-08-19T01:05:50;25.77;;;18.37;;
3547;SDS011;1788;49.400;11.092;2022-08-19T01:08:17;28.93;;;19.30;;
3547;SDS011;1788;49.400;11.092;2022-08-19T01:10:43;25.00;;;19.17;;
3547;SDS011;1788;49.400;11.092;2022-08-19T01:13:11;24.77;;;17.47;;
3547;SDS011;1788;49.400;11.092;2022-08-19T01:15:40;26.70;;;18.53;;
3547;SDS011;1788;49.400;11.092;2022-08-19T01:18:06;21.80;;;17.33;;
3547;SDS011;1788;49.400;11.092;2022-08-19T01:20:32;24.40;;;18.20;;
3547;SDS011;1788;49.400;11.092;2022-08-19T01:22:59;23.20;;;17.67;;
3547;SDS011;1788;49.400;11.092;2022-08-19T01:27:53;25.43;;;18.47;;
3547;SDS011;1788;49.400;11.092;2022-08-19T01:30:21;25.70;;;17.73;;
3547;SDS011;1788;49.400;11.092;2022-08-19T01:32:46;25.70;;;17.93;;
3547;SDS011;1788;49.400;11.092;2022-08-19T01:35:13;23.03;;;17.43;;
3547;SDS011;1788;49.400;11.092;2022-08-19T01:42:33;26.00;;;18.50;;
3547;SDS011;1788;49.400;11.092;2022-08-19T01:45:01;26.40;;;18.57;;
3547;SDS011;1788;49.400;11.092;2022-08-19T01:47:28;28.10;;;18.50;;
3547;SDS011;1788;49.400;11.092;2022-08-19T01:49:55;24.40;;;18.33;;
3547;SDS011;1788;49.400;11.092;2022-08-19T01:52:22;27.47;;;18.60;;
3547;SDS011;1788;49.400;11.092;2022-08-19T01:54:50;25.60;;;18.17;;
3547;SDS011;1788;49.400;11.092;2022-08-19T01:57:16;25.57;;;18.67;;
3547;SDS011;1788;49.400;11.092;2022-08-19T01:59:43;27.93;;;18.93;;
3547;SDS011;1788;49.400;11.092;2022-08-19T02:02:09;23.10;;;18.03;;
3547;SDS011;1788;49.400;11.092;2022-08-19T02:04:36;26.37;;;19.60;;
3547;SDS011;1788;49.400;11.092;2022-08-19T02:07:03;28.33;;;19.80;;
3547;SDS011;1788;49.400;11.092;2022-08-19T02:09:30;26.57;;;19.67;;
3547;SDS011;1788;49.400;11.092;2022-08-19T02:11:56;29.03;;;19.97;;
3547;SDS011;1788;49.400;11.092;2022-08-19T02:14:22;27.10;;;18.73;;
3547;SDS011;1788;49.400;11.092;2022-08-19T02:16:49;25.83;;;20.07;;
3547;SDS011;1788;49.400;11.092;2022-08-19T02:19:16;24.07;;;18.77;;
3547;SDS011;1788;49.400;11.092;2022-08-19T02:21:42;26.97;;;19.07;;
3547;SDS011;1788;49.400;11.092;2022-08-19T02:24:09;27.10;;;19.07;;
3547;SDS011;1788;49.400;11.092;2022-08-19T02:26:36;29.30;;;18.50;;
3547;SDS011;1788;49.400;11.092;2022-08-19T02:29:03;27.90;;;20.10;;
3547;SDS011;1788;49.400;11.092;2022-08-19T02:31:30;28.03;;;19.47;;
3547;SDS011;1788;49.400;11.092;2022-08-19T02:33:57;28.13;;;19.77;;
3547;SDS011;1788;49.400;11.092;2022-08-19T02:36:24;28.80;;;20.00;;
3547;SDS011;1788;49.400;11.092;2022-08-19T02:38:50;24.63;;;19.47;;
3547;SDS011;1788;49.400;11.092;2022-08-19T02:41:19;29.93;;;19.53;;
3547;SDS011;1788;49.400;11.092;2022-08-19T02:43:45;28.90;;;20.10;;
3547;SDS011;1788;49.400;11.092;2022-08-19T02:48:38;32.40;;;20.53;;
3547;SDS011;1788;49.400;11.092;2022-08-19T02:51:05;27.57;;;19.57;;
3547;SDS011;1788;49.400;11.092;2022-08-19T02:53:31;25.13;;;19.83;;
3547;SDS011;1788;49.400;11.092;2022-08-19T02:55:58;27.23;;;19.30;;
3547;SDS011;1788;49.400;11.092;2022-08-19T02:58:25;22.93;;;18.70;;
3547;SDS011;1788;49.400;11.092;2022-08-19T03:00:52;30.23;;;20.30;;
3547;SDS011;1788;49.400;11.092;2022-08-19T03:03:18;33.30;;;19.80;;
3547;SDS011;1788;49.400;11.092;2022-08-19T03:05:45;26.10;;;18.93;;
3547;SDS011;1788;49.400;11.092;2022-08-19T03:08:12;29.63;;;20.57;;
3547;SDS011;1788;49.400;11.092;2022-08-19T03:10:40;26.90;;;18.57;;
3547;SDS011;1788;49.400;11.092;2022-08-19T03:13:05;24.00;;;18.83;;
3547;SDS011;1788;49.400;11.092;2022-08-19T03:15:32;33.33;;;20.10;;
3547;SDS011;1788;49.400;11.092;2022-08-19T03:17:59;28.20;;;20.17;;
3547;SDS011;1788;49.400;11.092;2022-08-19T03:20:25;31.27;;;20.67;;
3547;SDS011;1788;49.400;11.092;2022-08-19T03:22:52;29.97;;;21.33;;
3547;SDS011;1788;49.400;11.092;2022-08-19T03:25:19;28.10;;;19.63;;
3547;SDS011;1788;49.400;11.092;2022-08-19T03:27:46;31.57;;;20.50;;
3547;SDS011;1788;49.400;11.092;2022-08-19T03:30:13;29.67;;;20.77;;
3547;SDS011;1788;49.400;11.092;2022-08-19T03:32:40;29.70;;;20.70;;
3547;SDS011;1788;49.400;11.092;2022-08-19T03:35:07;33.67;;;20.97;;
3547;SDS011;1788;49.400;11.092;2022-08-19T03:37:33;28.33;;;20.27;;
3547;SDS011;1788;49.400;11.092;2022-08-19T03:40:00;30.30;;;20.40;;
3547;SDS011;1788;49.400;11.092;2022-08-19T03:42:26;32.63;;;21.17;;
3547;SDS011;1788;49.400;11.092;2022-08-19T03:44:53;33.77;;;21.60;;
3547;SDS011;1788;49.400;11.092;2022-08-19T03:47:20;31.00;;;22.03;;
3547;SDS011;1788;49.400;11.092;2022-08-19T03:49:47;29.90;;;20.10;;
3547;SDS011;1788;49.400;11.092;2022-08-19T03:52:14;32.93;;;21.23;;
3547;SDS011;1788;49.400;11.092;2022-08-19T03:54:42;33.97;;;21.60;;
3547;SDS011;1788;49.400;11.092;2022-08-19T03:57:14;34.23;;;21.40;;
3547;SDS011;1788;49.400;11.092;2022-08-19T03:59:41;35.50;;;21.73;;
3547;SDS011;1788;49.400;11.092;2022-08-19T04:02:09;30.77;;;21.07;;
3547;SDS011;1788;49.400;11.092;2022-08-19T04:04:35;29.53;;;20.50;;
3547;SDS011;1788;49.400;11.092;2022-08-19T04:07:01;29.10;;;20.33;;
3547;SDS011;1788;49.400;11.092;2022-08-19T04:09:28;31.47;;;19.90;;
3547;SDS011;1788;49.400;11.092;2022-08-19T04:11:56;31.53;;;21.73;;
3547;SDS011;1788;49.400;11.092;2022-08-19T04:14:23;35.33;;;21.80;;
3547;SDS011;1788;49.400;11.092;2022-08-19T04:16:50;32.83;;;21.83;;
3547;SDS011;1788;49.400;11.092;2022-08-19T04:19:16;30.57;;;20.83;;
3547;SDS011;1788;49.400;11.092;2022-08-19T04:21:45;33.97;;;21.83;;
3547;SDS011;1788;49.400;11.092;2022-08-19T04:24:11;33.37;;;21.77;;
3547;SDS011;1788;49.400;11.092;2022-08-19T04:26:38;32.57;;;20.47;;
3547;SDS011;1788;49.400;11.092;2022-08-19T04:29:06;36.70;;;22.23;;
3547;SDS011;1788;49.400;11.092;2022-08-19T04:31:31;31.23;;;21.33;;
3547;SDS011;1788;49.400;11.092;2022-08-19T04:33:59;25.30;;;19.43;;
3547;SDS011;1788;49.400;11.092;2022-08-19T04:36:25;35.33;;;23.27;;
3547;SDS011;1788;49.400;11.092;2022-08-19T04:38:53;30.90;;;22.23;;
3547;SDS011;1788;49.400;11.092;2022-08-19T04:41:17;34.37;;;21.43;;
3547;SDS011;1788;49.400;11.092;2022-08-19T04:43:45;31.70;;;20.27;;
3547;SDS011;1788;49.400;11.092;2022-08-19T04:46:12;32.83;;;20.33;;
3547;SDS011;1788;49.400;11.092;2022-08-19T04:48:38;31.70;;;21.37;;
3547;SDS011;1788;49.400;11.092;2022-08-19T04:51:08;33.13;;;22.10;;
3547;SDS011;1788;49.400;11.092;2022-08-19T04:53:33;31.77;;;21.53;;
3547;SDS011;1788;49.400;11.092;2022-08-19T04:56:03;35.30;;;22.87;;
3547;SDS011;1788;49.400;11.092;2022-08-19T04:58:35;34.33;;;21.37;;
3547;SDS011;1788;49.400;11.092;2022-08-19T05:01:02;34.90;;;22.00;;
3547;SDS011;1788;49.400;11.092;2022-08-19T05:03:28;32.37;;;21.27;;
3547;SDS011;1788;49.400;11.092;2022-08-19T05:05:55;33.63;;;20.90;;
3547;SDS011;1788;49.400;11.092;2022-08-19T05:08:28;30.63;;;20.73;;
3547;SDS011;1788;49.400;11.092;2022-08-19T05:10:54;34.03;;;21.77;;
3547;SDS011;1788;49.400;11.092;2022-08-19T05:13:21;32.23;;;21.23;;
3547;SDS011;1788;49.400;11.092;2022-08-19T05:18:16;33.10;;;21.53;;
3547;SDS011;1788;49.400;11.092;2022-08-19T05:20:43;32.77;;;22.47;;
3547;SDS011;1788;49.400;11.092;2022-08-19T05:23:10;35.73;;;22.17;;
3547;SDS011;1788;49.400;11.092;2022-08-19T05:25:38;35.07;;;22.27;;
3547;SDS011;1788;49.400;11.092;2022-08-19T05:28:03;36.30;;;23.30;;
3547;SDS011;1788;49.400;11.092;2022-08-19T05:30:30;33.13;;;21.90;;
3547;SDS011;1788;49.400;11.092;2022-08-19T05:32:56;32.00;;;20.60;;
3547;SDS011;1788;49.400;11.092;2022-08-19T05:35:23;30.97;;;21.13;;
3547;SDS011;1788;49.400;11.092;2022-08-19T05:37:50;30.83;;;21.20;;
3547;SDS011;1788;49.400;11.092;2022-08-19T05:40:17;33.10;;;20.97;;
3547;SDS011;1788;49.400;11.092;2022-08-19T05:42:44;31.60;;;21.93;;
3547;SDS011;1788;49.400;11.092;2022-08-19T05:45:11;26.20;;;19.80;;
3547;SDS011;1788;49.400;11.092;2022-08-19T05:47:38;29.47;;;19.50;;
3547;SDS011;1788;49.400;11.092;2022-08-19T05:50:06;29.80;;;19.50;;
3547;SDS011;1788;49.400;11.092;2022-08-19T05:52:32;30.93;;;21.33;;
3547;SDS011;1788;49.400;11.092;2022-08-19T05:54:59;31.23;;;19.73;;
3547;SDS011;1788;49.400;11.092;2022-08-19T05:57:26;32.87;;;21.07;;
3547;SDS011;1788;49.400;11.092;2022-08-19T05:59:53;30.13;;;20.90;;
3547;SDS011;1788;49.400;11.092;2022-08-19T06:02:20;28.17;;;20.23;;
3547;SDS011;1788;49.400;11.092;2022-08-19T06:04:48;25.83;;;18.77;;
3547;SDS011;1788;49.400;11.092;2022-08-19T06:07:15;25.63;;;19.53;;
3547;SDS011;1788;49.400;11.092;2022-08-19T06:09:42;29.30;;;18.90;;
3547;SDS011;1788;49.400;11.092;2022-08-19T06:12:09;27.40;;;18.47;;
3547;SDS011;1788;49.400;11.092;2022-08-19T06:14:36;24.83;;;18.20;;
3547;SDS011;1788;49.400;11.092;2022-08-19T06:17:03;24.37;;;17.00;;
3547;SDS011;1788;49.400;11.092;2022-08-19T06:19:30;21.43;;;16.47;;
3547;SDS011;1788;49.400;11.092;2022-08-19T06:21:57;24.97;;;18.60;;
3547;SDS011;1788;49.400;11.092;2022-08-19T06:24:25;26.27;;;17.60;;
3547;SDS011;1788;49.400;11.092;2022-08-19T06:26:53;27.40;;;17.77;;
3547;SDS011;1788;49.400;11.092;2022-08-19T06:29:19;26.17;;;17.37;;
3547;SDS011;1788;49.400;11.092;2022-08-19T06:31:47;26.87;;;18.07;;
3547;SDS011;1788;49.400;11.092;2022-08-19T06:34:13;22.77;;;17.33;;
3547;SDS011;1788;49.400;11.092;2022-08-19T06:36:41;29.37;;;19.80;;
3547;SDS011;1788;49.400;11.092;2022-08-19T06:39:09;30.97;;;20.10;;
3547;SDS011;1788;49.400;11.092;2022-08-19T06:41:35;33.17;;;21.87;;
3547;SDS011;1788;49.400;11.092;2022-08-19T06:44:01;29.90;;;21.40;;
3547;SDS011;1788;49.400;11.092;2022-08-19T06:46:28;33.57;;;20.90;;
3547;SDS011;1788;49.400;11.092;2022-08-19T06:48:54;32.57;;;22.37;;
3547;SDS011;1788;49.400;11.092;2022-08-19T06:51:21;32.93;;;20.57;;
3547;SDS011;1788;49.400;11.092;2022-08-19T06:53:48;30.73;;;20.20;;
3547;SDS011;1788;49.400;11.092;2022-08-19T06:56:15;29.03;;;18.23;;
3547;SDS011;1788;49.400;11.092;2022-08-19T06:58:41;28.10;;;18.43;;
3547;SDS011;1788;49.400;11.092;2022-08-19T07:01:07;24.20;;;17.07;;
3547;SDS011;1788;49.400;11.092;2022-08-19T07:03:36;29.30;;;18.73;;
3547;SDS011;1788;49.400;11.092;2022-08-19T07:06:03;30.50;;;19.30;;
3547;SDS011;1788;49.400;11.092;2022-08-19T07:08:30;26.87;;;18.60;;
3547;SDS011;1788;49.400;11.092;2022-08-19T07:10:57;22.53;;;15.47;;
3547;SDS011;1788;49.400;11.092;2022-08-19T07:13:23;20.60;;;14.70;;
3547;SDS011;1788;49.400;11.092;2022-08-19T07:15:50;26.73;;;16.97;;
3547;SDS011;1788;49.400;11.092;2022-08-19T07:18:19;23.37;;;15.40;;
3547;SDS011;1788;49.400;11.092;2022-08-19T07:20:46;21.60;;;16.10;;
3547;SDS011;1788;49.400;11.092;2022-08-19T07:23:14;25.30;;;16.20;;
3547;SDS011;1788;49.400;11.092;2022-08-19T07:25:40;19.53;;;14.67;;
3547;SDS011;1788;49.400;11.092;2022-08-19T07:28:07;20.03;;;14.73;;
3547;SDS011;1788;49.400;11.092;2022-08-19T07:30:35;22.30;;;16.63;;
3547;SDS011;1788;49.400;11.092;2022-08-19T07:33:00;19.00;;;15.20;;
3547;SDS011;1788;49.400;11.092;2022-08-19T07:35:28;21.73;;;14.47;;
3547;SDS011;1788;49.400;11.092;2022-08-19T07:37:54;17.20;;;13.50;;
3547;SDS011;1788;49.400;11.092;2022-08-19T07:40:21;17.53;;;14.50;;
3547;SDS011;1788;49.400;11.092;2022-08-19T07:42:48;17.60;;;13.00;;
3547;SDS011;1788;49.400;11.092;2022-08-19T07:45:15;18.33;;;13.30;;
3547;SDS011;1788;49.400;11.092;2022-08-19T07:47:41;18.00;;;12.80;;
3547;SDS011;1788;49.400;11.092;2022-08-19T07:50:09;16.80;;;13.03;;
3547;SDS011;1788;49.400;11.092;2022-08-19T07:52:36;18.17;;;12.70;;
3547;SDS011;1788;49.400;11.092;2022-08-19T07:55:03;17.63;;;12.67;;
3547;SDS011;1788;49.400;11.092;2022-08-19T07:57:30;18.80;;;13.40;;
3547;SDS011;1788;49.400;11.092;2022-08-19T07:59:58;15.10;;;12.13;;
3547;SDS011;1788;49.400;11.092;2022-08-19T08:02:26;15.50;;;12.67;;
3547;SDS011;1788;49.400;11.092;2022-08-19T08:04:52;15.07;;;12.10;;
3547;SDS011;1788;49.400;11.092;2022-08-19T08:07:19;16.70;;;12.37;;
3547;SDS011;1788;49.400;11.092;2022-08-19T08:09:46;19.70;;;13.03;;
3547;SDS011;1788;49.400;11.092;2022-08-19T08:12:15;20.30;;;14.57;;
3547;SDS011;1788;49.400;11.092;2022-08-19T08:17:08;19.00;;;14.23;;
3547;SDS011;1788;49.400;11.092;2022-08-19T08:19:35;20.40;;;13.93;;
3547;SDS011;1788;49.400;11.092;2022-08-19T08:22:02;22.47;;;14.33;;
3547;SDS011;1788;49.400;11.092;2022-08-19T08:24:29;20.73;;;14.00;;
3547;SDS011;1788;49.400;11.092;2022-08-19T08:26:55;19.00;;;14.17;;
3547;SDS011;1788;49.400;11.092;2022-08-19T08:29:22;22.80;;;14.77;;
3547;SDS011;1788;49.400;11.092;2022-08-19T08:31:50;18.80;;;13.77;;
3547;SDS011;1788;49.400;11.092;2022-08-19T08:34:16;21.57;;;13.70;;
3547;SDS011;1788;49.400;11.092;2022-08-19T08:36:44;22.33;;;14.80;;
3547;SDS011;1788;49.400;11.092;2022-08-19T08:39:11;22.73;;;14.77;;
3547;SDS011;1788;49.400;11.092;2022-08-19T08:44:04;17.83;;;13.80;;
3547;SDS011;1788;49.400;11.092;2022-08-19T08:51:28;17.80;;;14.07;;
3547;SDS011;1788;49.400;11.092;2022-08-19T08:53:51;19.17;;;13.63;;
3547;SDS011;1788;49.400;11.092;2022-08-19T08:56:18;17.93;;;13.40;;
3547;SDS011;1788;49.400;11.092;2022-08-19T09:01:11;21.20;;;13.60;;
3547;SDS011;1788;49.400;11.092;2022-08-19T09:03:39;20.10;;;14.53;;
3547;SDS011;1788;49.400;11.092;2022-08-19T09:06:07;21.60;;;14.40;;
3547;SDS011;1788;49.400;11.092;2022-08-19T09:10:58;30.07;;;19.57;;
3547;SDS011;1788;49.400;11.092;2022-08-19T09:13:28;26.20;;;19.43;;
3547;SDS011;1788;49.400;11.092;2022-08-19T09:18:18;37.33;;;22.17;;
3547;SDS011;1788;49.400;11.092;2022-08-19T09:20:46;37.10;;;22.03;;
3547;SDS011;1788;49.400;11.092;2022-08-19T09:23:13;35.37;;;21.50;;
3547;SDS011;1788;49.400;11.092;2022-08-19T09:25:41;34.80;;;21.93;;
3547;SDS011;1788;49.400;11.092;2022-08-19T09:28:08;32.93;;;21.60;;
3547;SDS011;1788;49.400;11.092;2022-08-19T09:30:39;36.27;;;22.50;;
3547;SDS011;1788;49.400;11.092;2022-08-19T09:33:02;31.93;;;22.83;;
3547;SDS011;1788;49.400;11.092;2022-08-19T09:35:31;36.40;;;23.13;;
3547;SDS011;1788;49.400;11.092;2022-08-19T09:37:59;34.57;;;22.60;;
3547;SDS011;1788;49.400;11.092;2022-08-19T09:40:27;43.57;;;27.30;;
3547;SDS011;1788;49.400;11.092;2022-08-19T09:42:54;39.40;;;25.83;;
3547;SDS011;1788;49.400;11.092;2022-08-19T09:45:21;37.40;;;22.93;;
3547;SDS011;1788;49.400;11.092;2022-08-19T09:47:49;29.77;;;20.43;;
3547;SDS011;1788;49.400;11.092;2022-08-19T09:50:16;29.93;;;18.97;;
3547;SDS011;1788;49.400;11.092;2022-08-19T09:52:45;27.57;;;19.67;;
3547;SDS011;1788;49.400;11.092;2022-08-19T09:55:12;32.87;;;21.30;;
3547;SDS011;1788;49.400;11.092;2022-08-19T09:57:40;32.63;;;20.57;;
3547;SDS011;1788;49.400;11.092;2022-08-19T10:00:08;33.23;;;20.83;;
3547;SDS011;1788;49.400;11.092;2022-08-19T10:02:36;29.50;;;20.63;;
3547;SDS011;1788;49.400;11.092;2022-08-19T10:05:06;32.23;;;19.27;;
3547;SDS011;1788;49.400;11.092;2022-08-19T10:07:33;33.47;;;21.70;;
3547;SDS011;1788;49.400;11.092;2022-08-19T10:10:02;32.53;;;19.77;;
3547;SDS011;1788;49.400;11.092;2022-08-19T10:12:27;31.43;;;19.80;;
3547;SDS011;1788;49.400;11.092;2022-08-19T10:14:53;34.63;;;21.73;;
3547;SDS011;1788;49.400;11.092;2022-08-19T10:17:20;30.37;;;20.77;;
3547;SDS011;1788;49.400;11.092;2022-08-19T10:19:47;34.33;;;21.20;;
3547;SDS011;1788;49.400;11.092;2022-08-19T10:22:14;27.10;;;20.10;;
3547;SDS011;1788;49.400;11.092;2022-08-19T10:24:41;33.83;;;21.17;;
3547;SDS011;1788;49.400;11.092;2022-08-19T10:27:08;27.03;;;19.90;;
3547;SDS011;1788;49.400;11.092;2022-08-19T10:29:35;36.60;;;21.30;;
3547;SDS011;1788;49.400;11.092;2022-08-19T10:32:06;31.47;;;19.93;;
3547;SDS011;1788;49.400;11.092;2022-08-19T10:34:31;32.40;;;21.00;;
3547;SDS011;1788;49.400;11.092;2022-08-19T10:36:59;33.33;;;22.27;;
3547;SDS011;1788;49.400;11.092;2022-08-19T10:39:26;29.77;;;19.70;;
3547;SDS011;1788;49.400;11.092;2022-08-19T10:41:52;33.37;;;21.87;;
3547;SDS011;1788;49.400;11.092;2022-08-19T10:44:20;31.17;;;20.67;;
3547;SDS011;1788;49.400;11.092;2022-08-19T10:46:46;30.13;;;19.23;;
3547;SDS011;1788;49.400;11.092;2022-08-19T10:49:13;36.13;;;20.00;;
3547;SDS011;1788;49.400;11.092;2022-08-19T10:51:40;30.67;;;19.60;;
3547;SDS011;1788;49.400;11.092;2022-08-19T10:54:07;32.37;;;20.10;;
3547;SDS011;1788;49.400;11.092;2022-08-19T10:56:33;28.13;;;19.27;;
3547;SDS011;1788;49.400;11.092;2022-08-19T10:59:00;28.67;;;19.30;;
3547;SDS011;1788;49.400;11.092;2022-08-19T11:01:27;36.13;;;21.13;;
3547;SDS011;1788;49.400;11.092;2022-08-19T11:03:56;29.87;;;20.27;;
3547;SDS011;1788;49.400;11.092;2022-08-19T11:06:23;29.27;;;19.60;;
3547;SDS011;1788;49.400;11.092;2022-08-19T11:08:49;30.87;;;20.87;;
3547;SDS011;1788;49.400;11.092;2022-08-19T11:11:16;27.47;;;20.37;;
3547;SDS011;1788;49.400;11.092;2022-08-19T11:13:43;29.57;;;20.13;;
3547;SDS011;1788;49.400;11.092;2022-08-19T11:16:11;34.37;;;20.43;;
3547;SDS011;1788;49.400;11.092;2022-08-19T11:18:36;32.07;;;19.70;;
3547;SDS011;1788;49.400;11.092;2022-08-19T11:23:30;30.83;;;20.57;;
3547;SDS011;1788;49.400;11.092;2022-08-19T11:25:57;28.77;;;20.00;;
3547;SDS011;1788;49.400;11.092;2022-08-19T11:28:24;30.67;;;20.40;;
3547;SDS011;1788;49.400;11.092;2022-08-19T11:30:51;33.60;;;20.90;;
3547;SDS011;1788;49.400;11.092;2022-08-19T11:33:18;31.17;;;19.97;;
3547;SDS011;1788;49.400;11.092;2022-08-19T11:35:44;31.33;;;22.23;;
3547;SDS011;1788;49.400;11.092;2022-08-19T11:38:11;28.90;;;20.07;;
3547;SDS011;1788;49.400;11.092;2022-08-19T11:40:37;31.87;;;21.13;;
3547;SDS011;1788;49.400;11.092;2022-08-19T11:43:04;31.77;;;21.77;;
3547;SDS011;1788;49.400;11.092;2022-08-19T11:45:31;32.77;;;21.90;;
3547;SDS011;1788;49.400;11.092;2022-08-19T11:47:57;30.17;;;20.40;;
3547;SDS011;1788;49.400;11.092;2022-08-19T11:50:24;30.43;;;20.50;;
3547;SDS011;1788;49.400;11.092;2022-08-19T11:55:18;32.73;;;21.23;;
3547;SDS011;1788;49.400;11.092;2022-08-19T11:57:45;30.43;;;21.10;;
3547;SDS011;1788;49.400;11.092;2022-08-19T12:00:12;32.17;;;21.37;;
3547;SDS011;1788;49.400;11.092;2022-08-19T12:02:38;33.63;;;21.83;;
3547;SDS011;1788;49.400;11.092;2022-08-19T12:05:05;33.00;;;22.53;;
3547;SDS011;1788;49.400;11.092;2022-08-19T12:07:32;32.80;;;22.47;;
3547;SDS011;1788;49.400;11.092;2022-08-19T12:09:59;35.97;;;23.37;;
3547;SDS011;1788;49.400;11.092;2022-08-19T12:12:26;31.20;;;23.63;;
3547;SDS011;1788;49.400;11.092;2022-08-19T12:14:52;37.33;;;23.63;;
3547;SDS011;1788;49.400;11.092;2022-08-19T12:17:19;32.93;;;23.23;;
3547;SDS011;1788;49.400;11.092;2022-08-19T12:19:45;34.80;;;23.07;;
3547;SDS011;1788;49.400;11.092;2022-08-19T12:22:12;28.13;;;17.60;;
3547;SDS011;1788;49.400;11.092;2022-08-19T12:24:38;33.97;;;23.63;;
3547;SDS011;1788;49.400;11.092;2022-08-19T12:27:05;38.20;;;23.40;;
3547;SDS011;1788;49.400;11.092;2022-08-19T12:29:32;37.60;;;23.23;;
3547;SDS011;1788;49.400;11.092;2022-08-19T12:31:59;43.60;;;24.50;;
3547;SDS011;1788;49.400;11.092;2022-08-19T12:34:27;35.07;;;24.90;;
3547;SDS011;1788;49.400;11.092;2022-08-19T12:36:52;38.60;;;25.00;;
3547;SDS011;1788;49.400;11.092;2022-08-19T12:39:19;40.80;;;25.10;;
3547;SDS011;1788;49.400;11.092;2022-08-19T12:41:46;35.50;;;24.70;;
3547;SDS011;1788;49.400;11.092;2022-08-19T12:44:12;34.20;;;24.47;;
3547;SDS011;1788;49.400;11.092;2022-08-19T12:46:39;27.23;;;18.30;;
3547;SDS011;1788;49.400;11.092;2022-08-19T12:49:06;37.77;;;24.13;;
3547;SDS011;1788;49.400;11.092;2022-08-19T12:51:33;30.90;;;18.70;;
3547;SDS011;1788;49.400;11.092;2022-08-19T12:53:59;25.93;;;18.07;;
3547;SDS011;1788;49.400;11.092;2022-08-19T12:56:26;33.33;;;23.57;;
3547;SDS011;1788;49.400;11.092;2022-08-19T12:58:53;33.77;;;23.70;;
3547;SDS011;1788;49.400;11.092;2022-08-19T13:01:20;37.27;;;23.70;;
3547;SDS011;1788;49.400;11.092;2022-08-19T13:03:47;37.97;;;23.57;;
3547;SDS011;1788;49.400;11.092;2022-08-19T13:06:13;37.17;;;25.13;;
3547;SDS011;1788;49.400;11.092;2022-08-19T13:08:40;37.57;;;24.63;;
3547;SDS011;1788;49.400;11.092;2022-08-19T13:11:09;36.67;;;23.77;;
3547;SDS011;1788;49.400;11.092;2022-08-19T13:13:35;34.73;;;23.57;;
3547;SDS011;1788;49.400;11.092;2022-08-19T13:16:01;38.33;;;24.60;;
3547;SDS011;1788;49.400;11.092;2022-08-19T13:18:29;35.50;;;24.60;;
3547;SDS011;1788;49.400;11.092;2022-08-19T13:20:55;38.87;;;24.97;;
3547;SDS011;1788;49.400;11.092;2022-08-19T13:23:22;36.93;;;25.63;;
3547;SDS011;1788;49.400;11.092;2022-08-19T13:28:15;36.27;;;25.40;;
3547;SDS011;1788;49.400;11.092;2022-08-19T13:30:42;39.50;;;24.90;;
3547;SDS011;1788;49.400;11.092;2022-08-19T13:33:08;42.20;;;25.10;;
3547;SDS011;1788;49.400;11.092;2022-08-19T13:35:36;36.67;;;25.80;;
3547;SDS011;1788;49.400;11.092;2022-08-19T13:38:02;39.23;;;25.27;;
3547;SDS011;1788;49.400;11.092;2022-08-19T13:40:29;39.47;;;25.53;;
3547;SDS011;1788;49.400;11.092;2022-08-19T13:42:56;36.03;;;24.00;;
3547;SDS011;1788;49.400;11.092;2022-08-19T13:45:24;42.67;;;26.80;;
3547;SDS011;1788;49.400;11.092;2022-08-19T13:47:50;33.83;;;25.07;;
3547;SDS011;1788;49.400;11.092;2022-08-19T13:50:17;38.43;;;25.40;;
3547;SDS011;1788;49.400;11.092;2022-08-19T13:52:42;37.07;;;26.30;;
3547;SDS011;1788;49.400;11.092;2022-08-19T13:55:10;37.83;;;25.03;;
3547;SDS011;1788;49.400;11.092;2022-08-19T14:00:03;35.27;;;24.10;;
3547;SDS011;1788;49.400;11.092;2022-08-19T14:02:30;40.17;;;24.63;;
3547;SDS011;1788;49.400;11.092;2022-08-19T14:04:57;40.13;;;24.97;;
3547;SDS011;1788;49.400;11.092;2022-08-19T14:07:23;36.60;;;24.53;;
3547;SDS011;1788;49.400;11.092;2022-08-19T14:09:50;35.17;;;22.63;;
3547;SDS011;1788;49.400;11.092;2022-08-19T14:14:43;34.60;;;20.67;;
3547;SDS011;1788;49.400;11.092;2022-08-19T14:17:09;35.27;;;23.43;;
3547;SDS011;1788;49.400;11.092;2022-08-19T14:19:36;32.30;;;21.60;;
3547;SDS011;1788;49.400;11.092;2022-08-19T14:22:03;31.23;;;21.70;;
3547;SDS011;1788;49.400;11.092;2022-08-19T14:24:30;23.17;;;18.50;;
3547;SDS011;1788;49.400;11.092;2022-08-19T14:26:58;27.53;;;19.23;;
3547;SDS011;1788;49.400;11.092;2022-08-19T14:29:25;29.27;;;19.57;;
3547;SDS011;1788;49.400;11.092;2022-08-19T14:31:52;29.67;;;19.23;;
3547;SDS011;1788;49.400;11.092;2022-08-19T14:34:18;23.63;;;17.30;;
3547;SDS011;1788;49.400;11.092;2022-08-19T14:36:45;26.73;;;17.43;;
3547;SDS011;1788;49.400;11.092;2022-08-19T14:39:11;24.20;;;17.13;;
3547;SDS011;1788;49.400;11.092;2022-08-19T14:41:39;22.27;;;15.77;;
3547;SDS011;1788;49.400;11.092;2022-08-19T14:44:05;23.13;;;14.43;;
3547;SDS011;1788;49.400;11.092;2022-08-19T14:46:31;16.60;;;13.27;;
3547;SDS011;1788;49.400;11.092;2022-08-19T14:48:59;16.40;;;11.10;;
3547;SDS011;1788;49.400;11.092;2022-08-19T14:51:25;16.97;;;12.53;;
3547;SDS011;1788;49.400;11.092;2022-08-19T14:53:52;17.23;;;11.27;;
3547;SDS011;1788;49.400;11.092;2022-08-19T14:56:21;17.27;;;11.40;;
3547;SDS011;1788;49.400;11.092;2022-08-19T14:58:45;16.37;;;11.20;;
3547;SDS011;1788;49.400;11.092;2022-08-19T15:01:12;17.27;;;10.07;;
3547;SDS011;1788;49.400;11.092;2022-08-19T15:03:39;14.23;;;10.93;;
3547;SDS011;1788;49.400;11.092;2022-08-19T15:06:06;16.83;;;12.27;;
3547;SDS011;1788;49.400;11.092;2022-08-19T15:08:34;14.77;;;12.13;;
3547;SDS011;1788;49.400;11.092;2022-08-19T15:11:00;18.10;;;12.87;;
3547;SDS011;1788;49.400;11.092;2022-08-19T15:13:27;18.00;;;12.33;;
3547;SDS011;1788;49.400;11.092;2022-08-19T15:15:54;22.73;;;14.77;;